createdAt,value
2023-04-25T00:00:29.918Z,6.35
2023-04-25T00:03:19.775Z,6.63
2023-04-25T00:05:49.306Z,6.80
2023-04-25T00:08:17.790Z,6.40
2023-04-25T00:10:46.450Z,7.22
2023-04-25T00:13:14.794Z,6.32
2023-04-25T00:15:43.918Z,7.18
2023-04-25T00:18:12.562Z,7.53
2023-04-25T00:20:41.534Z,7.82
2023-04-25T00:23:09.819Z,7.10
2023-04-25T00:25:38.779Z,6.85
2023-04-25T00:28:07.049Z,7.00
2023-04-25T00:30:35.882Z,7.40
2023-04-25T00:33:04.132Z,6.38
2023-04-25T00:35:33.138Z,7.07
2023-04-25T00:38:02.209Z,6.78
2023-04-25T00:40:30.807Z,7.07
2023-04-25T00:42:59.302Z,7.10
2023-04-25T00:45:32.973Z,7.32
2023-04-25T00:48:01.654Z,6.25
2023-04-25T00:50:31.083Z,6.85
2023-04-25T00:52:59.351Z,5.63
2023-04-25T00:55:29.470Z,4.45
2023-04-25T00:57:57.845Z,5.40
2023-04-25T01:00:26.632Z,5.30
2023-04-25T01:02:55.257Z,5.03
2023-04-25T01:05:24.280Z,5.07
2023-04-25T01:07:52.869Z,5.97
2023-04-25T01:10:22.500Z,6.15
2023-04-25T01:12:51.048Z,6.10
2023-04-25T01:15:19.994Z,5.82
2023-04-25T01:17:50.686Z,4.88
2023-04-25T01:20:23.692Z,6.00
2023-04-25T01:22:54.082Z,6.00
2023-04-25T01:25:24.303Z,5.85
2023-04-25T01:27:52.976Z,5.72
2023-04-25T01:30:22.154Z,5.57
2023-04-25T01:32:51.782Z,4.68
2023-04-25T01:35:21.176Z,5.30
2023-04-25T01:37:50.748Z,4.90
2023-04-25T01:40:22.075Z,5.18
2023-04-25T01:42:51.050Z,5.40
2023-04-25T01:45:23.515Z,5.32
2023-04-25T01:47:53.305Z,5.38
2023-04-25T01:50:24.364Z,4.93
2023-04-25T01:52:52.937Z,5.53
2023-04-25T01:55:22.298Z,5.05
2023-04-25T01:58:14.146Z,5.85
2023-04-25T02:01:01.605Z,5.70
2023-04-25T02:03:36.374Z,4.70
2023-04-25T02:06:11.165Z,5.57
2023-04-25T02:08:44.282Z,5.45
2023-04-25T02:11:14.947Z,5.70
2023-04-25T02:13:49.873Z,4.80
2023-04-25T02:16:40.988Z,4.60
2023-04-25T02:19:09.676Z,4.60
2023-04-25T02:21:38.461Z,4.75
2023-04-25T02:24:08.723Z,4.53
2023-04-25T02:26:37.928Z,5.05
2023-04-25T02:29:10.194Z,4.03
2023-04-25T02:31:38.976Z,4.60
2023-04-25T02:34:07.231Z,4.20
2023-04-25T02:36:38.610Z,3.97
2023-04-25T02:39:07.141Z,4.35
2023-04-25T02:41:37.127Z,4.32
2023-04-25T02:44:05.384Z,4.55
2023-04-25T02:46:39.410Z,4.03
2023-04-25T02:49:08.524Z,4.55
2023-04-25T02:51:37.922Z,4.32
2023-04-25T02:54:07.803Z,3.80
2023-04-25T02:56:40.957Z,3.72
2023-04-25T02:59:14.605Z,3.90
2023-04-25T03:01:43.319Z,3.10
2023-04-25T03:04:11.740Z,3.72
2023-04-25T03:06:40.664Z,3.92
2023-04-25T03:09:09.026Z,3.25
2023-04-25T03:11:40.283Z,3.92
2023-04-25T03:14:08.706Z,3.80
2023-04-25T03:16:37.864Z,4.13
2023-04-25T03:19:06.764Z,3.40
2023-04-25T03:21:37.386Z,2.92
2023-04-25T03:24:06.112Z,2.60
2023-04-25T03:26:34.979Z,2.90
2023-04-25T03:29:05.616Z,2.90
2023-04-25T03:31:36.481Z,2.35
2023-04-25T03:34:04.784Z,2.65
2023-04-25T03:36:33.858Z,2.83
2023-04-25T03:39:02.434Z,2.58
2023-04-25T03:41:33.750Z,2.83
2023-04-25T03:44:10.361Z,2.63
2023-04-25T03:46:39.096Z,2.70
2023-04-25T03:49:08.040Z,2.67
2023-04-25T03:51:55.125Z,2.40
2023-04-25T03:54:24.200Z,2.35
2023-04-25T03:56:59.867Z,2.47
2023-04-25T03:59:30.921Z,2.30
2023-04-25T04:02:00.112Z,2.30
2023-04-25T04:04:30.063Z,2.67
2023-04-25T04:06:59.279Z,2.25
2023-04-25T04:09:30.799Z,2.28
2023-04-25T04:12:02.758Z,2.30
2023-04-25T04:14:33.405Z,2.63
2023-04-25T04:17:02.064Z,2.28
2023-04-25T04:19:31.026Z,2.33
2023-04-25T04:22:13.961Z,1.92
2023-04-25T04:24:45.047Z,2.05
2023-04-25T04:27:16.256Z,1.27
2023-04-25T04:29:57.628Z,2.15
2023-04-25T04:32:35.871Z,1.60
2023-04-25T04:35:07.702Z,1.60
2023-04-25T04:37:37.976Z,1.73
2023-04-25T04:40:32.440Z,2.40
2023-04-25T04:43:30.835Z,2.20
2023-04-25T04:46:14.204Z,2.10
2023-04-25T04:49:01.837Z,1.70
2023-04-25T04:52:06.573Z,1.73
2023-04-25T04:54:55.131Z,2.58
2023-04-25T04:58:01.872Z,2.40
2023-04-25T05:00:55.278Z,2.05
2023-04-25T05:04:21.627Z,2.40
2023-04-25T05:07:08.984Z,2.30
2023-04-25T05:09:57.393Z,1.85
2023-04-25T05:13:04.349Z,3.00
2023-04-25T05:15:51.051Z,1.73
2023-04-25T05:18:27.536Z,2.33
2023-04-25T05:21:18.601Z,2.30
2023-04-25T05:23:51.944Z,1.70
2023-04-25T05:26:46.442Z,2.47
2023-04-25T05:29:33.225Z,2.63
2023-04-25T05:32:13.407Z,2.25
2023-04-25T05:34:43.082Z,2.30
2023-04-25T05:37:21.340Z,2.35
2023-04-25T05:39:57.319Z,2.10
2023-04-25T05:42:48.397Z,2.72
2023-04-25T05:45:49.143Z,2.00
2023-04-25T05:48:46.769Z,2.08
2023-04-25T05:51:34.234Z,2.30
2023-04-25T05:54:19.734Z,2.28
2023-04-25T05:56:48.377Z,2.95
2023-04-25T05:59:16.678Z,2.15
2023-04-25T06:01:45.785Z,1.95
2023-04-25T06:04:14.497Z,2.70
2023-04-25T06:06:43.578Z,3.22
2023-04-25T06:09:14.270Z,2.92
2023-04-25T06:11:43.739Z,2.90
2023-04-25T06:14:12.046Z,2.83
2023-04-25T06:16:46.715Z,2.70
2023-04-25T06:19:15.094Z,1.42
2023-04-25T06:21:45.229Z,2.78
2023-04-25T06:24:13.529Z,2.38
2023-04-25T06:26:42.272Z,3.08
2023-04-25T06:29:11.009Z,3.17
2023-04-25T06:31:39.932Z,2.83
2023-04-25T06:34:08.532Z,2.78
2023-04-25T06:36:42.554Z,3.15
2023-04-25T06:39:14.023Z,2.83
2023-04-25T06:41:42.652Z,2.85
2023-04-25T06:44:30.880Z,3.83
2023-04-25T06:47:00.277Z,3.60
2023-04-25T06:49:28.784Z,3.70
2023-04-25T06:51:58.012Z,3.35
2023-04-25T06:54:28.415Z,3.17
2023-04-25T06:57:03.999Z,3.53
2023-04-25T06:59:34.567Z,3.88
2023-04-25T07:02:03.469Z,3.58
2023-04-25T07:04:32.117Z,3.90
2023-04-25T07:07:03.946Z,3.72
2023-04-25T07:10:01.778Z,5.65
2023-04-25T07:12:54.804Z,3.47
2023-04-25T07:15:23.472Z,3.38
2023-04-25T07:17:53.072Z,3.20
2023-04-25T07:20:22.940Z,3.10
2023-04-25T07:22:51.320Z,3.17
2023-04-25T07:25:22.374Z,3.20
2023-04-25T07:30:38.783Z,3.00
2023-04-25T07:33:07.176Z,2.70
2023-04-25T07:35:36.357Z,2.10
2023-04-25T07:38:04.871Z,2.90
2023-04-25T07:40:33.763Z,2.45
2023-04-25T07:43:07.269Z,3.10
2023-04-25T07:45:49.530Z,2.03
2023-04-25T07:48:20.950Z,2.50
2023-04-25T07:50:53.505Z,2.53
2023-04-25T07:53:21.937Z,2.85
2023-04-25T07:55:57.747Z,2.17
2023-04-25T07:58:26.124Z,2.15
2023-04-25T08:01:00.874Z,2.20
2023-04-25T08:03:32.135Z,2.70
2023-04-25T08:06:04.850Z,5.25
2023-04-25T08:08:43.253Z,2.70
2023-04-25T08:11:15.471Z,3.15
2023-04-25T08:13:43.926Z,2.97
2023-04-25T08:16:12.767Z,3.08
2023-04-25T08:18:41.017Z,2.70
2023-04-25T08:21:12.813Z,3.33
2023-04-25T08:23:41.298Z,2.80
2023-04-25T08:26:24.155Z,2.70
2023-04-25T08:28:53.092Z,2.28
2023-04-25T08:31:22.164Z,3.03
2023-04-25T08:34:02.317Z,3.00
2023-04-25T08:36:39.650Z,2.80
2023-04-25T08:39:21.981Z,2.65
2023-04-25T08:42:17.178Z,2.78
2023-04-25T08:44:47.273Z,2.83
2023-04-25T08:47:16.195Z,2.47
2023-04-25T08:49:51.095Z,3.00
2023-04-25T08:52:27.520Z,3.53
2023-04-25T08:54:56.576Z,3.63
2023-04-25T08:57:26.179Z,3.13
2023-04-25T08:59:55.728Z,3.55
2023-04-25T09:02:26.580Z,3.20
2023-04-25T09:04:56.815Z,3.55
2023-04-25T09:07:27.125Z,2.60
2023-04-25T09:09:57.536Z,3.53
2023-04-25T09:12:29.023Z,3.33
2023-04-25T09:15:08.320Z,3.78
2023-04-25T09:18:00.992Z,3.60
2023-04-25T09:20:56.519Z,3.47
2023-04-25T09:23:32.414Z,3.33
2023-04-25T09:26:01.991Z,3.15
2023-04-25T09:28:31.178Z,2.80
2023-04-25T09:34:02.246Z,2.50
2023-04-25T09:36:36.700Z,2.40
2023-04-25T09:39:30.916Z,2.05
2023-04-25T09:42:10.982Z,2.30
2023-04-25T09:44:46.761Z,2.20
2023-04-25T09:47:19.039Z,2.95
2023-04-25T09:52:25.119Z,2.47
2023-04-25T09:55:09.994Z,2.08
2023-04-25T09:57:42.671Z,2.75
2023-04-25T10:00:14.225Z,2.42
2023-04-25T10:02:48.756Z,2.15
2023-04-25T10:05:37.272Z,2.38
2023-04-25T10:08:07.942Z,2.20
2023-04-25T10:10:39.697Z,2.45
2023-04-25T10:13:09.301Z,2.58
2023-04-25T10:15:40.143Z,2.50
2023-04-25T10:18:08.826Z,3.00
2023-04-25T10:20:38.795Z,2.75
2023-04-25T10:23:18.074Z,2.70
2023-04-25T10:26:05.882Z,2.67
2023-04-25T10:29:00.568Z,3.30
2023-04-25T10:31:33.017Z,2.90
2023-04-25T10:34:02.688Z,2.97
2023-04-25T10:36:35.241Z,2.47
2023-04-25T10:39:13.105Z,2.40
2023-04-25T10:41:53.726Z,2.25
2023-04-25T10:44:22.090Z,2.40
2023-04-25T10:46:51.275Z,2.28
2023-04-25T10:49:42.486Z,2.60
2023-04-25T10:52:29.131Z,2.53
2023-04-25T10:54:59.187Z,2.05
2023-04-25T10:57:51.059Z,2.58
2023-04-25T11:00:26.010Z,3.00
2023-04-25T11:03:03.574Z,2.88
2023-04-25T11:05:47.603Z,2.75
2023-04-25T11:08:39.152Z,2.40
2023-04-25T11:11:09.697Z,1.92
2023-04-25T11:13:39.359Z,2.03
2023-04-25T11:16:12.638Z,1.73
2023-04-25T11:19:01.522Z,2.35
2023-04-25T11:21:32.981Z,2.30
2023-04-25T11:24:02.422Z,2.47
2023-04-25T11:26:31.984Z,2.22
2023-04-25T11:29:01.635Z,2.67
2023-04-25T11:31:30.614Z,2.80
2023-04-25T11:34:01.137Z,3.53
2023-04-25T11:36:31.876Z,3.58
2023-04-25T11:39:02.623Z,3.55
2023-04-25T11:41:32.737Z,5.10
2023-04-25T11:44:02.501Z,3.35
2023-04-25T11:46:32.024Z,3.50
2023-04-25T11:49:01.344Z,3.80
2023-04-25T11:51:30.322Z,3.13
2023-04-25T11:54:01.779Z,3.75
2023-04-25T11:56:31.313Z,3.83
2023-04-25T11:59:02.534Z,3.95
2023-04-25T12:01:39.027Z,3.70
2023-04-25T12:04:20.544Z,3.63
2023-04-25T12:06:52.851Z,3.85
2023-04-25T12:09:29.951Z,3.60
2023-04-25T12:11:59.955Z,3.60
2023-04-25T12:14:38.333Z,3.80
2023-04-25T12:17:09.309Z,2.70
2023-04-25T12:19:45.415Z,2.30
2023-04-25T12:22:22.698Z,2.55
2023-04-25T12:24:55.425Z,2.33
2023-04-25T12:27:27.956Z,2.38
2023-04-25T12:29:58.006Z,2.70
2023-04-25T12:32:27.594Z,2.60
2023-04-25T12:34:56.913Z,3.00
2023-04-25T12:38:14.952Z,2.38
2023-04-25T12:40:44.465Z,2.75
2023-04-25T12:43:13.258Z,2.72
2023-04-25T12:45:42.391Z,3.05
2023-04-25T12:48:11.176Z,3.35
2023-04-25T12:50:42.794Z,2.95
2023-04-25T12:53:13.089Z,3.50
2023-04-25T12:55:43.261Z,2.72
2023-04-25T12:58:12.663Z,2.50
2023-04-25T13:00:41.272Z,2.25
2023-04-25T13:03:11.867Z,2.38
2023-04-25T13:05:42.398Z,2.10
2023-04-25T13:08:11.962Z,2.45
2023-04-25T13:10:42.384Z,2.55
2023-04-25T13:13:10.908Z,2.30
2023-04-25T13:15:41.404Z,7.03
2023-04-25T13:18:09.830Z,2.90
2023-04-25T13:20:41.120Z,3.05
2023-04-25T13:23:10.334Z,2.33
2023-04-25T13:25:41.414Z,2.65
2023-04-25T13:28:09.991Z,2.88
2023-04-25T13:30:41.329Z,2.70
2023-04-25T13:33:11.608Z,2.78
2023-04-25T13:35:40.950Z,2.50
2023-04-25T13:38:11.515Z,2.45
2023-04-25T13:40:42.901Z,2.90
2023-04-25T13:43:12.225Z,2.50
2023-04-25T13:45:46.014Z,3.20
2023-04-25T13:48:16.231Z,3.28
2023-04-25T13:50:50.577Z,3.50
2023-04-25T13:53:20.606Z,2.92
2023-04-25T13:55:52.816Z,3.10
2023-04-25T13:58:22.563Z,3.63
2023-04-25T14:00:51.732Z,4.03
2023-04-25T14:03:21.815Z,3.55
2023-04-25T14:05:51.228Z,3.78
2023-04-25T14:08:20.032Z,3.85
2023-04-25T14:10:50.059Z,3.60
2023-04-25T14:13:28.158Z,3.30
2023-04-25T14:15:57.111Z,3.75
2023-04-25T14:18:26.100Z,3.88
2023-04-25T14:21:05.578Z,3.55
2023-04-25T14:23:34.812Z,3.58
2023-04-25T14:26:06.379Z,3.45
2023-04-25T14:28:35.061Z,3.70
2023-04-25T14:31:04.411Z,3.15
2023-04-25T14:33:33.132Z,3.38
2023-04-25T14:36:06.310Z,3.00
2023-04-25T14:38:37.588Z,9.85
2023-04-25T14:41:13.158Z,25.23
2023-04-25T14:43:43.489Z,4.10
2023-04-25T14:46:16.028Z,3.58
2023-04-25T14:48:44.428Z,2.42
2023-04-25T14:52:04.905Z,1.85
2023-04-25T14:55:06.228Z,2.10
2023-04-25T14:57:36.505Z,1.80
2023-04-25T15:00:08.102Z,1.70
2023-04-25T15:06:13.327Z,1.90
2023-04-25T15:08:43.464Z,1.77
2023-04-25T15:11:12.400Z,2.15
2023-04-25T15:13:42.279Z,2.50
2023-04-25T15:16:11.709Z,2.85
2023-04-25T15:18:42.057Z,2.28
2023-04-25T15:21:12.082Z,2.53
2023-04-25T15:23:41.682Z,2.20
2023-04-25T15:26:10.500Z,2.42
2023-04-25T15:28:39.619Z,2.38
2023-04-25T15:31:08.317Z,2.70
2023-04-25T15:33:36.872Z,9.65
2023-04-25T15:36:06.181Z,3.60
2023-04-25T15:38:34.720Z,2.53
2023-04-25T15:41:04.179Z,2.63
2023-04-25T15:43:35.865Z,3.00
2023-04-25T15:46:07.326Z,2.95
2023-04-25T15:48:36.634Z,2.55
2023-04-25T15:51:06.176Z,2.80
2023-04-25T15:53:35.532Z,2.72
2023-04-25T15:56:04.881Z,2.67
2023-04-25T15:58:33.485Z,3.20
2023-04-25T16:01:01.760Z,2.95
2023-04-25T16:03:32.850Z,3.90
2023-04-25T16:06:12.468Z,2.78
2023-04-25T16:08:49.992Z,2.75
2023-04-25T16:11:20.507Z,3.00
2023-04-25T16:13:49.933Z,2.83
2023-04-25T16:16:25.005Z,4.18
2023-04-25T16:18:54.755Z,2.80
2023-04-25T16:21:28.973Z,2.88
2023-04-25T16:23:59.896Z,3.58
2023-04-25T16:26:28.722Z,3.10
2023-04-25T16:28:59.112Z,5.57
2023-04-25T16:31:27.596Z,6.47
2023-04-25T16:33:57.422Z,5.00
2023-04-25T16:36:28.990Z,5.72
2023-04-25T16:38:57.579Z,5.90
2023-04-25T16:41:26.312Z,8.07
2023-04-25T16:43:56.082Z,5.78
2023-04-25T16:46:24.613Z,5.97
2023-04-25T16:48:54.709Z,4.82
2023-04-25T16:51:24.252Z,5.30
2023-04-25T16:53:53.099Z,4.60
2023-04-25T16:56:21.559Z,4.85
2023-04-25T16:58:50.758Z,4.20
2023-04-25T17:01:45.135Z,4.90
2023-04-25T17:04:14.284Z,8.82
2023-04-25T17:06:43.189Z,8.50
2023-04-25T17:09:12.151Z,5.70
2023-04-25T17:11:40.599Z,6.10
2023-04-25T17:14:09.384Z,6.60
2023-04-25T17:16:39.139Z,8.75
2023-04-25T17:19:09.721Z,6.85
2023-04-25T17:21:39.654Z,7.25
2023-04-25T17:24:22.852Z,7.80
2023-04-25T17:26:52.604Z,6.95
2023-04-25T17:29:23.785Z,7.40
2023-04-25T17:31:53.831Z,6.55
2023-04-25T17:34:50.683Z,7.22
2023-04-25T17:40:26.941Z,5.47
2023-04-25T17:42:55.786Z,6.22
2023-04-25T17:45:24.203Z,22.67
2023-04-25T17:47:53.319Z,8.93
2023-04-25T17:50:21.902Z,5.85
2023-04-25T17:52:50.841Z,8.85
2023-04-25T17:55:19.454Z,5.88
2023-04-25T17:57:48.265Z,6.07
2023-04-25T18:00:17.978Z,6.53
2023-04-25T18:03:12.696Z,8.68
2023-04-25T18:05:41.584Z,7.53
2023-04-25T18:08:10.432Z,7.25
2023-04-25T18:10:39.524Z,6.60
2023-04-25T18:13:09.264Z,6.05
2023-04-25T18:15:37.577Z,5.70
2023-04-25T18:18:19.885Z,6.13
2023-04-25T18:20:48.757Z,4.68
2023-04-25T18:23:17.455Z,5.50
2023-04-25T18:25:46.922Z,4.90
2023-04-25T18:28:15.917Z,5.00
2023-04-25T18:30:45.395Z,5.22
2023-04-25T18:33:14.189Z,5.10
2023-04-25T18:35:48.276Z,5.30
2023-04-25T18:41:10.752Z,5.75
2023-04-25T18:43:49.009Z,5.63
2023-04-25T18:46:22.385Z,5.65
2023-04-25T18:48:55.897Z,5.53
2023-04-25T18:51:31.798Z,5.70
2023-04-25T18:57:42.371Z,10.90
2023-04-25T19:01:26.481Z,14.50
2023-04-25T19:03:58.538Z,8.65
2023-04-25T19:08:58.720Z,7.38
2023-04-25T19:11:34.354Z,6.60
2023-04-25T19:14:05.494Z,5.13
2023-04-25T19:16:43.254Z,5.93
2023-04-25T19:20:46.650Z,6.13
2023-04-25T19:27:55.432Z,8.13
2023-04-25T19:31:14.654Z,7.57
2023-04-25T19:33:50.542Z,5.40
2023-04-25T19:36:23.390Z,6.93
2023-04-25T19:38:51.823Z,6.10
2023-04-25T19:42:50.732Z,7.70
2023-04-25T19:48:52.665Z,5.20
2023-04-25T19:51:22.404Z,5.28
2023-04-25T19:57:24.798Z,4.50
2023-04-25T20:00:09.484Z,5.50
2023-04-25T20:04:06.210Z,5.75
2023-04-25T20:06:41.889Z,5.80
2023-04-25T20:09:38.748Z,5.80
2023-04-25T20:12:38.179Z,5.53
2023-04-25T20:15:11.878Z,5.32
2023-04-25T20:17:44.795Z,5.45
2023-04-25T20:20:17.927Z,5.38
2023-04-25T20:22:53.543Z,5.38
2023-04-25T20:25:32.414Z,4.85
2023-04-25T20:28:01.596Z,5.10
2023-04-25T20:30:30.323Z,4.88
2023-04-25T20:33:01.675Z,5.43
2023-04-25T20:35:30.306Z,6.07
2023-04-25T20:37:58.881Z,5.78
2023-04-25T20:40:27.803Z,5.93
2023-04-25T20:43:22.399Z,5.60
2023-04-25T20:45:55.195Z,6.07
2023-04-25T20:48:24.436Z,5.45
2023-04-25T20:51:43.811Z,6.72
2023-04-25T20:54:13.556Z,6.60
2023-04-25T20:56:42.006Z,7.88
2023-04-25T20:59:13.397Z,15.82
2023-04-25T21:01:45.325Z,9.57
2023-04-25T21:04:14.343Z,8.70
2023-04-25T21:06:43.062Z,10.55
2023-04-25T21:09:11.914Z,8.57
2023-04-25T21:11:40.906Z,6.97
2023-04-25T21:14:09.718Z,7.18
2023-04-25T21:16:45.020Z,7.60
2023-04-25T21:19:17.132Z,7.22
2023-04-25T21:21:45.872Z,6.57
2023-04-25T21:24:15.017Z,6.68
2023-04-25T21:26:43.330Z,7.60
2023-04-25T21:29:13.336Z,14.27
2023-04-25T21:32:06.672Z,11.38
2023-04-25T21:34:35.332Z,8.45
2023-04-25T21:37:03.542Z,9.55
2023-04-25T21:39:57.743Z,7.07
2023-04-25T21:42:27.317Z,7.82
2023-04-25T21:44:56.320Z,8.55
2023-04-25T21:47:24.958Z,6.68
2023-04-25T21:49:59.139Z,8.15
2023-04-25T21:53:19.755Z,20.15
2023-04-25T21:56:42.572Z,22.15
2023-04-25T21:59:10.934Z,12.70
2023-04-25T22:01:40.067Z,8.60
2023-04-25T22:04:08.449Z,7.53
2023-04-25T22:06:37.847Z,6.75
2023-04-25T22:09:09.999Z,7.22
2023-04-25T22:11:41.632Z,7.10
2023-04-25T22:14:35.250Z,6.00
2023-04-25T22:17:05.747Z,6.40
2023-04-25T22:19:34.174Z,6.03
2023-04-25T22:22:28.483Z,5.90
2023-04-25T22:24:57.118Z,4.88
2023-04-25T22:27:27.422Z,5.78
2023-04-25T22:29:55.806Z,5.80
2023-04-25T22:32:26.185Z,5.97
2023-04-25T22:34:54.451Z,5.40
2023-04-25T22:37:24.328Z,6.05
2023-04-25T22:39:53.086Z,6.45
2023-04-25T22:42:21.932Z,6.20
2023-04-25T22:44:50.387Z,7.28
2023-04-25T22:47:18.955Z,8.57
2023-04-25T22:49:47.260Z,7.70
2023-04-25T22:52:17.282Z,8.18
2023-04-25T22:54:47.949Z,8.73
2023-04-25T22:57:17.097Z,7.97
2023-04-25T22:59:45.889Z,8.32
2023-04-25T23:02:14.587Z,9.52
2023-04-25T23:04:43.585Z,8.38
2023-04-25T23:07:14.528Z,7.53
2023-04-25T23:09:42.994Z,6.30
2023-04-25T23:12:11.677Z,5.82
2023-04-25T23:14:40.054Z,6.22
2023-04-25T23:17:10.394Z,5.72
2023-04-25T23:19:38.866Z,6.35
2023-04-25T23:22:07.644Z,6.38
2023-04-25T23:24:39.438Z,4.93
2023-04-25T23:27:08.306Z,5.22
2023-04-25T23:29:40.726Z,5.30
2023-04-25T23:32:09.377Z,5.63
2023-04-25T23:34:37.632Z,7.13
2023-04-25T23:37:06.381Z,7.30
2023-04-25T23:39:34.612Z,6.50
2023-04-25T23:42:03.164Z,7.10
2023-04-25T23:44:35.144Z,6.47
2023-04-25T23:47:04.025Z,6.40
2023-04-25T23:49:33.887Z,6.78
2023-04-25T23:52:03.951Z,6.32
2023-04-25T23:54:32.236Z,6.65
2023-04-25T23:57:01.069Z,6.35
2023-04-25T23:59:29.360Z,6.70
